KOAK

Metropolitan Oakland International Airport

Oakland, California, USA
METAR KOAK 230453Z 29007KT 10SM FEW010 13/10 A2998 RMK AO2 SLP151 T01330100
Observed Flight Rules
Oct-23 @ 04:53 UTC (25 minutes ago) Visual Flight Rules
Wind Visibility Clouds
290° at 7 knots 10 miles
  • Few at 1,000' AGL
Temperatures Readings
Current 13°C / 55°F
Dewpoint 10°C / 50°F
Humidity 82%
Altimeter 29.98" Hg
Pressure 1015.1 hPa
Elevation 26
METAR KOAK 230453Z 29007KT 10SM FEW010 13/10 A2998 RMK AO2 SLP151 T01330100
Observed Flight Rules
Oct-23 @ 04:53 UTC
(25 minutes ago)
VFR
Wind Visibility
290° at 7 knots 10 miles
Clouds
  • Few at 1,000' AGL
Temperature Dewpoint
13°C / 55°F 10°C / 50°F
Humidity Altimeter Pressure
82% 29.98" Hg 1015.1 hPa